createdAt,value
2022-08-04T00:03:37.077Z,66.8
2022-08-04T00:07:44.845Z,66.7
2022-08-04T00:12:49.837Z,66.6
2022-08-04T00:17:56.300Z,66.5
2022-08-04T00:23:02.679Z,66.7
2022-08-04T00:28:09.129Z,66.7
2022-08-04T00:33:15.491Z,66.8
2022-08-04T00:38:45.903Z,66.6
2022-08-04T00:43:28.263Z,66.6
2022-08-04T00:48:54.679Z,66.6
2022-08-04T00:53:41.083Z,66.6
2022-08-04T00:58:47.504Z,66.4
2022-08-04T01:03:53.884Z,67.2
2022-08-04T01:09:00.257Z,66.5
2022-08-04T01:14:06.643Z,66.8
2022-08-04T01:19:13.024Z,66.8
2022-08-04T01:24:19.391Z,66.9
2022-08-04T01:39:58.875Z,66.9
2022-08-04T01:44:45.212Z,66.8
2022-08-04T01:49:51.603Z,66.7
2022-08-04T01:55:58.055Z,66.8
2022-08-04T02:05:10.742Z,66.7
2022-08-04T02:10:37.178Z,66.7
2022-08-04T02:15:47.578Z,66.6
2022-08-04T02:20:29.918Z,66.5
2022-08-04T02:27:26.542Z,66.7
2022-08-04T02:32:48.132Z,66.4
2022-08-04T02:37:33.554Z,66.5
2022-08-04T02:42:49.957Z,66.4
2022-08-04T02:48:31.195Z,66.4
2022-08-04T02:53:46.835Z,66.3
2022-08-04T02:58:13.112Z,66.2
2022-08-04T03:03:15.483Z,66.3
2022-08-04T03:13:18.933Z,66.1
2022-08-04T03:18:35.337Z,66.1
2022-08-04T03:24:19.715Z,66.2
2022-08-04T03:29:43.222Z,66.1
2022-08-04T03:34:29.575Z,66.0
2022-08-04T03:39:36.110Z,65.7
2022-08-04T03:49:48.961Z,66.3
2022-08-04T03:55:15.379Z,66.4
2022-08-04T04:00:01.732Z,66.5
2022-08-04T04:04:58.108Z,66.7
2022-08-04T04:15:20.907Z,67.0
2022-08-04T04:20:27.271Z,66.8
2022-08-04T04:25:33.651Z,66.8
2022-08-04T04:30:40.072Z,67.0
2022-08-04T04:35:50.445Z,67.0
2022-08-04T04:40:52.813Z,67.2
2022-08-04T04:45:59.199Z,67.0
2022-08-04T04:51:29.618Z,67.0
2022-08-04T04:56:01.975Z,67.2
2022-08-04T05:01:17.360Z,67.5
2022-08-04T05:06:24.737Z,67.1
2022-08-04T05:11:31.124Z,67.2
2022-08-04T05:16:27.589Z,67.1
2022-08-04T05:21:33.986Z,67.9
2022-08-04T05:27:18.430Z,68.2
2022-08-04T05:31:46.745Z,68.8
2022-08-04T05:37:47.242Z,69.4
2022-08-04T05:42:58.620Z,69.0
2022-08-04T05:48:01.000Z,69.5
2022-08-04T05:53:07.360Z,69.7
2022-08-04T05:59:25.958Z,69.9
2022-08-04T06:03:20.304Z,69.7
2022-08-04T06:08:26.682Z,69.8
2022-08-04T06:13:49.202Z,69.8
2022-08-04T06:19:59.981Z,69.7
2022-08-04T06:23:53.789Z,69.4
2022-08-04T06:28:52.269Z,69.5
2022-08-04T06:33:58.654Z,69.7
2022-08-04T06:39:25.105Z,69.4
2022-08-04T06:44:31.443Z,70.0
2022-08-04T06:49:17.881Z,69.3
2022-08-04T06:54:24.366Z,69.3
2022-08-04T06:59:20.830Z,69.5
2022-08-04T07:05:05.845Z,69.7
2022-08-04T07:09:43.609Z,69.8
2022-08-04T07:14:49.987Z,70.0
2022-08-04T07:20:00.372Z,69.8
2022-08-04T07:26:13.527Z,69.4
2022-08-04T07:31:33.182Z,69.6
2022-08-04T07:36:29.211Z,69.4
2022-08-04T07:41:35.952Z,68.7
2022-08-04T07:51:44.799Z,66.1
2022-08-04T07:56:51.196Z,64.9
2022-08-04T08:07:03.989Z,62.1
2022-08-04T08:12:36.712Z,60.4
2022-08-04T08:17:16.841Z,59.1
2022-08-04T08:22:23.217Z,58.4
2022-08-04T08:27:29.597Z,57.3
2022-08-04T08:32:35.975Z,56.4
2022-08-04T08:39:14.690Z,55.8
2022-08-04T08:42:48.745Z,55.5
2022-08-04T08:48:39.216Z,55.5
2022-08-04T08:58:49.083Z,53.1
2022-08-04T09:03:56.456Z,52.7
2022-08-04T09:09:02.961Z,51.4
2022-08-04T09:14:09.438Z,51.3
2022-08-04T09:19:22.690Z,50.4
2022-08-04T09:24:35.778Z,48.7
2022-08-04T09:29:27.686Z,48.9
2022-08-04T09:34:25.171Z,49.1
2022-08-04T09:40:01.818Z,48.0
2022-08-04T09:46:00.093Z,48.1
2022-08-04T09:49:54.350Z,42.8
2022-08-04T10:00:40.483Z,43.8
2022-08-04T10:05:13.511Z,44.0
2022-08-04T10:10:19.855Z,42.5
2022-08-04T10:15:26.270Z,42.3
2022-08-04T10:26:06.052Z,43.1
2022-08-04T10:30:45.502Z,43.1
2022-08-04T10:35:51.899Z,41.3
2022-08-04T10:40:58.278Z,40.5
2022-08-04T10:46:24.703Z,40.4
2022-08-04T10:51:11.074Z,40.2
2022-08-04T11:02:00.164Z,42.9
2022-08-04T11:12:00.583Z,43.5
2022-08-04T11:17:17.120Z,42.4
2022-08-04T11:22:24.582Z,40.8
2022-08-04T11:27:31.373Z,40.8
2022-08-04T11:37:48.234Z,40.7
2022-08-04T11:42:50.636Z,40.1
2022-08-04T11:47:57.009Z,40.1
2022-08-04T11:58:12.807Z,41.1
2022-08-04T12:03:16.284Z,41.7
2022-08-04T12:08:22.649Z,41.9
2022-08-04T12:13:29.074Z,42.2
2022-08-04T12:18:55.463Z,41.9
2022-08-04T12:23:41.914Z,42.5
2022-08-04T12:29:16.221Z,42.9
2022-08-04T12:34:18.825Z,43.6
2022-08-04T12:39:25.281Z,44.8
2022-08-04T12:44:07.535Z,46.2
2022-08-04T12:49:03.896Z,47.3
2022-08-04T12:54:19.303Z,47.9
2022-08-04T12:59:26.666Z,48.8
2022-08-04T13:04:36.711Z,49.3
2022-08-04T13:09:42.072Z,50.1
2022-08-04T13:14:49.449Z,50.5
2022-08-04T13:20:29.899Z,51.4
2022-08-04T13:26:42.685Z,51.1
2022-08-04T13:30:43.735Z,52.0
2022-08-04T13:36:24.196Z,52.4
2022-08-04T13:46:28.716Z,53.0
2022-08-04T13:51:57.924Z,53.0
2022-08-04T13:56:40.777Z,53.4
2022-08-04T14:01:57.630Z,55.4
2022-08-04T14:10:33.089Z,56.0
2022-08-04T14:16:02.828Z,55.6
2022-08-04T14:21:10.912Z,56.3
2022-08-04T14:25:43.212Z,57.0
2022-08-04T14:30:59.748Z,56.2
2022-08-04T14:36:26.265Z,56.5
2022-08-04T14:42:24.811Z,56.7
2022-08-04T14:46:08.961Z,56.9
2022-08-04T14:51:26.107Z,57.2
2022-08-04T14:56:46.646Z,57.4
2022-08-04T15:01:38.288Z,57.4
2022-08-04T15:06:44.540Z,57.6
2022-08-04T15:11:50.948Z,57.6
2022-08-04T15:22:07.704Z,58.0
2022-08-04T15:27:10.069Z,58.0
2022-08-04T15:32:16.469Z,58.1
2022-08-04T15:37:22.986Z,58.6
2022-08-04T15:42:29.345Z,58.9
2022-08-04T15:47:25.705Z,59.1
2022-08-04T15:52:31.894Z,59.3
2022-08-04T15:57:52.498Z,59.5
2022-08-04T16:02:54.981Z,59.8
2022-08-04T16:08:01.470Z,59.9
2022-08-04T16:13:07.896Z,59.8
2022-08-04T16:23:09.591Z,60.1
2022-08-04T16:28:16.977Z,60.4
2022-08-04T16:33:43.823Z,60.6
2022-08-04T16:38:40.409Z,60.7
2022-08-04T16:48:57.282Z,61.1
2022-08-04T16:54:04.696Z,61.0
2022-08-04T16:59:06.025Z,61.4
2022-08-04T17:04:12.415Z,61.4
2022-08-04T17:09:19.013Z,61.6
2022-08-04T17:14:45.250Z,61.5
2022-08-04T17:19:31.635Z,61.3
2022-08-04T17:24:38.054Z,61.1
2022-08-04T17:29:45.214Z,61.2
2022-08-04T17:34:50.895Z,61.3
2022-08-04T17:39:57.342Z,61.0
2022-08-04T17:45:25.409Z,60.8
2022-08-04T17:50:30.055Z,61.3
2022-08-04T17:55:36.459Z,61.1
2022-08-04T18:00:51.263Z,61.2
2022-08-04T18:06:02.160Z,61.4
2022-08-04T18:10:46.318Z,62.0
2022-08-04T18:16:54.415Z,62.0
2022-08-04T18:20:50.202Z,61.9
2022-08-04T18:25:55.278Z,62.1
2022-08-04T18:30:55.240Z,62.2
2022-08-04T18:36:34.364Z,62.2
2022-08-04T18:41:15.031Z,62.3
2022-08-04T18:46:21.439Z,62.5
2022-08-04T18:56:34.298Z,62.8
2022-08-04T19:02:12.719Z,62.9
2022-08-04T19:06:47.070Z,63.0
2022-08-04T19:16:50.442Z,63.4
2022-08-04T19:22:08.232Z,63.4
2022-08-04T19:27:14.334Z,63.6
2022-08-04T19:32:20.825Z,63.6
2022-08-04T19:37:56.856Z,63.8
2022-08-04T19:43:07.430Z,63.8
2022-08-04T19:48:23.720Z,64.1
2022-08-04T19:53:37.457Z,64.4
2022-08-04T19:58:35.363Z,64.6
2022-08-04T20:13:56.523Z,65.1
2022-08-04T20:19:27.050Z,65.3
2022-08-04T20:24:37.620Z,65.8
2022-08-04T20:29:20.675Z,65.8
2022-08-04T20:34:49.846Z,65.8
2022-08-04T20:39:54.667Z,66.0
2022-08-04T20:49:45.383Z,66.1
2022-08-04T20:54:56.146Z,66.2
2022-08-04T21:05:49.000Z,66.3
2022-08-04T21:20:48.441Z,66.6
2022-08-04T21:25:50.493Z,66.5
2022-08-04T21:30:52.388Z,66.6
2022-08-04T21:36:43.359Z,66.8
2022-08-04T21:40:39.634Z,66.9
2022-08-04T21:46:20.070Z,67.0
2022-08-04T21:51:59.118Z,67.0
2022-08-04T21:56:09.072Z,67.1
2022-08-04T22:01:12.725Z,67.3
2022-08-04T22:16:24.519Z,67.6
2022-08-04T22:21:30.902Z,67.5
2022-08-04T22:26:37.389Z,67.7
2022-08-04T22:34:32.083Z,67.7
2022-08-04T22:37:36.035Z,67.8
2022-08-04T22:42:13.296Z,67.9
2022-08-04T22:47:20.572Z,67.9
2022-08-04T22:52:27.766Z,68.3
2022-08-04T22:58:50.947Z,68.2
2022-08-04T23:02:56.169Z,68.6
2022-08-04T23:07:52.528Z,68.8
2022-08-04T23:12:44.881Z,69.3
2022-08-04T23:17:43.747Z,69.6
2022-08-04T23:22:57.635Z,70.1
2022-08-04T23:28:04.178Z,70.1
2022-08-04T23:33:51.148Z,70.7
2022-08-04T23:38:31.093Z,70.9
2022-08-04T23:43:23.284Z,71.6
2022-08-04T23:48:21.012Z,71.9
2022-08-04T23:53:35.968Z,72.0
2022-08-04T23:58:42.369Z,72.0
